sensor_id;sensor_type;location;lat;lon;timestamp;P1;durP1;ratioP1;P2;durP2;ratioP2
48789;SDS011;41718;51.980;5.734;2022-08-03T00:03:22;4.75;;;1.75;;
48789;SDS011;41718;51.980;5.734;2022-08-03T00:08:23;4.57;;;1.40;;
48789;SDS011;41718;51.980;5.734;2022-08-03T00:13:25;3.28;;;1.50;;
48789;SDS011;41718;51.980;5.734;2022-08-03T00:18:27;5.55;;;2.38;;
48789;SDS011;41718;51.980;5.734;2022-08-03T00:23:29;4.55;;;1.92;;
48789;SDS011;41718;51.980;5.734;2022-08-03T00:28:50;5.47;;;2.10;;
48789;SDS011;41718;51.980;5.734;2022-08-03T00:33:52;4.38;;;2.53;;
48789;SDS011;41718;51.980;5.734;2022-08-03T00:39:00;5.10;;;2.35;;
48789;SDS011;41718;51.980;5.734;2022-08-03T00:44:02;4.85;;;2.25;;
48789;SDS011;41718;51.980;5.734;2022-08-03T00:49:03;5.15;;;2.17;;
48789;SDS011;41718;51.980;5.734;2022-08-03T00:54:05;7.22;;;2.38;;
48789;SDS011;41718;51.980;5.734;2022-08-03T00:59:08;3.60;;;1.83;;
48789;SDS011;41718;51.980;5.734;2022-08-03T01:04:10;3.78;;;2.25;;
48789;SDS011;41718;51.980;5.734;2022-08-03T01:09:18;6.72;;;2.13;;
48789;SDS011;41718;51.980;5.734;2022-08-03T01:14:38;7.38;;;1.98;;
48789;SDS011;41718;51.980;5.734;2022-08-03T01:19:48;6.35;;;1.67;;
48789;SDS011;41718;51.980;5.734;2022-08-03T01:25:02;9.32;;;2.90;;
48789;SDS011;41718;51.980;5.734;2022-08-03T01:30:14;3.47;;;2.30;;
48789;SDS011;41718;51.980;5.734;2022-08-03T01:35:19;5.00;;;2.40;;
48789;SDS011;41718;51.980;5.734;2022-08-03T01:40:25;10.95;;;2.92;;
48789;SDS011;41718;51.980;5.734;2022-08-03T01:45:28;7.18;;;2.50;;
48789;SDS011;41718;51.980;5.734;2022-08-03T01:55:36;6.03;;;2.58;;
48789;SDS011;41718;51.980;5.734;2022-08-03T02:00:40;11.93;;;2.72;;
48789;SDS011;41718;51.980;5.734;2022-08-03T02:05:44;4.53;;;2.05;;
48789;SDS011;41718;51.980;5.734;2022-08-03T02:10:47;4.78;;;1.95;;
48789;SDS011;41718;51.980;5.734;2022-08-03T02:15:50;7.72;;;2.67;;
48789;SDS011;41718;51.980;5.734;2022-08-03T02:20:53;10.27;;;2.55;;
48789;SDS011;41718;51.980;5.734;2022-08-03T02:25:59;3.53;;;1.90;;
48789;SDS011;41718;51.980;5.734;2022-08-03T02:31:10;8.98;;;2.35;;
48789;SDS011;41718;51.980;5.734;2022-08-03T02:36:15;4.25;;;2.03;;
48789;SDS011;41718;51.980;5.734;2022-08-03T02:41:23;5.22;;;2.45;;
48789;SDS011;41718;51.980;5.734;2022-08-03T02:46:37;6.53;;;3.10;;
48789;SDS011;41718;51.980;5.734;2022-08-03T02:51:44;5.43;;;2.15;;
48789;SDS011;41718;51.980;5.734;2022-08-03T02:56:48;5.55;;;2.47;;
48789;SDS011;41718;51.980;5.734;2022-08-03T03:01:52;3.28;;;2.25;;
48789;SDS011;41718;51.980;5.734;2022-08-03T03:06:55;7.05;;;2.20;;
48789;SDS011;41718;51.980;5.734;2022-08-03T03:11:58;4.03;;;2.25;;
48789;SDS011;41718;51.980;5.734;2022-08-03T03:17:00;7.38;;;4.03;;
48789;SDS011;41718;51.980;5.734;2022-08-03T03:22:03;9.80;;;5.07;;
48789;SDS011;41718;51.980;5.734;2022-08-03T03:27:07;11.45;;;4.40;;
48789;SDS011;41718;51.980;5.734;2022-08-03T03:32:09;12.35;;;5.30;;
48789;SDS011;41718;51.980;5.734;2022-08-03T03:37:11;8.00;;;4.82;;
48789;SDS011;41718;51.980;5.734;2022-08-03T03:42:12;8.13;;;3.55;;
48789;SDS011;41718;51.980;5.734;2022-08-03T03:47:14;13.68;;;4.82;;
48789;SDS011;41718;51.980;5.734;2022-08-03T03:52:16;8.10;;;5.05;;
48789;SDS011;41718;51.980;5.734;2022-08-03T03:57:18;10.73;;;5.65;;
48789;SDS011;41718;51.980;5.734;2022-08-03T04:02:20;12.07;;;6.50;;
48789;SDS011;41718;51.980;5.734;2022-08-03T04:07:24;14.68;;;7.97;;
48789;SDS011;41718;51.980;5.734;2022-08-03T04:12:46;14.70;;;7.28;;
48789;SDS011;41718;51.980;5.734;2022-08-03T04:17:51;9.95;;;6.30;;
48789;SDS011;41718;51.980;5.734;2022-08-03T04:22:57;14.45;;;6.28;;
48789;SDS011;41718;51.980;5.734;2022-08-03T04:28:00;10.30;;;6.22;;
48789;SDS011;41718;51.980;5.734;2022-08-03T04:33:22;11.35;;;6.25;;
48789;SDS011;41718;51.980;5.734;2022-08-03T04:38:30;14.07;;;5.95;;
48789;SDS011;41718;51.980;5.734;2022-08-03T04:43:35;15.50;;;5.87;;
48789;SDS011;41718;51.980;5.734;2022-08-03T04:48:40;11.63;;;6.20;;
48789;SDS011;41718;51.980;5.734;2022-08-03T04:53:45;11.05;;;6.30;;
48789;SDS011;41718;51.980;5.734;2022-08-03T04:58:46;12.25;;;6.72;;
48789;SDS011;41718;51.980;5.734;2022-08-03T05:03:48;11.55;;;6.45;;
48789;SDS011;41718;51.980;5.734;2022-08-03T05:08:50;10.63;;;7.03;;
48789;SDS011;41718;51.980;5.734;2022-08-03T05:13:51;15.98;;;6.70;;
48789;SDS011;41718;51.980;5.734;2022-08-03T05:18:53;15.75;;;6.75;;
48789;SDS011;41718;51.980;5.734;2022-08-03T05:23:55;23.10;;;7.05;;
48789;SDS011;41718;51.980;5.734;2022-08-03T05:28:56;12.85;;;6.43;;
48789;SDS011;41718;51.980;5.734;2022-08-03T05:33:58;13.38;;;6.25;;
48789;SDS011;41718;51.980;5.734;2022-08-03T05:38:59;13.55;;;6.15;;
48789;SDS011;41718;51.980;5.734;2022-08-03T05:44:03;13.70;;;7.07;;
48789;SDS011;41718;51.980;5.734;2022-08-03T05:49:05;9.25;;;5.60;;
48789;SDS011;41718;51.980;5.734;2022-08-03T05:54:07;11.50;;;6.20;;
48789;SDS011;41718;51.980;5.734;2022-08-03T05:59:09;12.65;;;6.38;;
48789;SDS011;41718;51.980;5.734;2022-08-03T06:04:31;9.75;;;4.90;;
48789;SDS011;41718;51.980;5.734;2022-08-03T06:09:32;9.90;;;5.28;;
48789;SDS011;41718;51.980;5.734;2022-08-03T06:14:55;19.45;;;6.40;;
48789;SDS011;41718;51.980;5.734;2022-08-03T06:19:56;15.85;;;5.47;;
48789;SDS011;41718;51.980;5.734;2022-08-03T06:24:58;10.43;;;5.00;;
48789;SDS011;41718;51.980;5.734;2022-08-03T06:30:08;9.38;;;4.20;;
48789;SDS011;41718;51.980;5.734;2022-08-03T06:35:11;8.80;;;5.00;;
48789;SDS011;41718;51.980;5.734;2022-08-03T06:40:13;11.18;;;4.43;;
48789;SDS011;41718;51.980;5.734;2022-08-03T06:45:24;11.20;;;4.30;;
48789;SDS011;41718;51.980;5.734;2022-08-03T06:50:32;11.00;;;4.45;;
48789;SDS011;41718;51.980;5.734;2022-08-03T06:55:34;13.15;;;4.18;;
48789;SDS011;41718;51.980;5.734;2022-08-03T07:00:42;5.78;;;3.88;;
48789;SDS011;41718;51.980;5.734;2022-08-03T07:05:44;15.35;;;4.60;;
48789;SDS011;41718;51.980;5.734;2022-08-03T07:10:49;15.82;;;4.60;;
48789;SDS011;41718;51.980;5.734;2022-08-03T07:15:50;14.20;;;5.05;;
48789;SDS011;41718;51.980;5.734;2022-08-03T07:20:56;14.23;;;5.13;;
48789;SDS011;41718;51.980;5.734;2022-08-03T07:25:58;8.65;;;3.90;;
48789;SDS011;41718;51.980;5.734;2022-08-03T07:31:00;9.77;;;3.50;;
48789;SDS011;41718;51.980;5.734;2022-08-03T07:36:02;10.23;;;4.55;;
48789;SDS011;41718;51.980;5.734;2022-08-03T07:41:04;15.70;;;3.80;;
48789;SDS011;41718;51.980;5.734;2022-08-03T07:46:05;8.20;;;3.30;;
48789;SDS011;41718;51.980;5.734;2022-08-03T07:51:07;9.10;;;4.13;;
48789;SDS011;41718;51.980;5.734;2022-08-03T07:56:09;11.57;;;3.78;;
48789;SDS011;41718;51.980;5.734;2022-08-03T08:01:11;8.52;;;3.45;;
48789;SDS011;41718;51.980;5.734;2022-08-03T08:06:15;8.93;;;3.63;;
48789;SDS011;41718;51.980;5.734;2022-08-03T08:11:18;7.00;;;3.00;;
48789;SDS011;41718;51.980;5.734;2022-08-03T08:16:22;12.85;;;3.03;;
48789;SDS011;41718;51.980;5.734;2022-08-03T08:21:23;10.23;;;3.17;;
48789;SDS011;41718;51.980;5.734;2022-08-03T08:26:45;17.35;;;3.53;;
48789;SDS011;41718;51.980;5.734;2022-08-03T08:31:47;14.32;;;4.88;;
48789;SDS011;41718;51.980;5.734;2022-08-03T08:36:49;10.55;;;2.80;;
48789;SDS011;41718;51.980;5.734;2022-08-03T08:41:50;12.65;;;4.85;;
48789;SDS011;41718;51.980;5.734;2022-08-03T08:46:53;7.95;;;3.22;;
48789;SDS011;41718;51.980;5.734;2022-08-03T08:51:57;6.13;;;2.42;;
48789;SDS011;41718;51.980;5.734;2022-08-03T08:57:02;9.55;;;3.17;;
48789;SDS011;41718;51.980;5.734;2022-08-03T09:02:30;10.35;;;3.35;;
48789;SDS011;41718;51.980;5.734;2022-08-03T09:07:32;10.13;;;3.00;;
48789;SDS011;41718;51.980;5.734;2022-08-03T09:12:41;10.40;;;3.67;;
48789;SDS011;41718;51.980;5.734;2022-08-03T09:17:43;11.35;;;3.88;;
48789;SDS011;41718;51.980;5.734;2022-08-03T09:23:01;10.82;;;3.38;;
48789;SDS011;41718;51.980;5.734;2022-08-03T09:28:34;10.02;;;4.75;;
48789;SDS011;41718;51.980;5.734;2022-08-03T09:33:56;8.35;;;2.90;;
48789;SDS011;41718;51.980;5.734;2022-08-03T09:39:03;11.38;;;2.83;;
48789;SDS011;41718;51.980;5.734;2022-08-03T09:44:07;10.50;;;3.53;;
48789;SDS011;41718;51.980;5.734;2022-08-03T09:49:24;9.63;;;2.95;;
48789;SDS011;41718;51.980;5.734;2022-08-03T09:54:27;13.18;;;3.05;;
48789;SDS011;41718;51.980;5.734;2022-08-03T09:59:30;9.30;;;2.72;;
48789;SDS011;41718;51.980;5.734;2022-08-03T10:04:33;11.90;;;3.67;;
48789;SDS011;41718;51.980;5.734;2022-08-03T10:10:00;7.95;;;3.33;;
48789;SDS011;41718;51.980;5.734;2022-08-03T10:15:22;9.60;;;2.85;;
48789;SDS011;41718;51.980;5.734;2022-08-03T10:20:45;8.05;;;2.75;;
48789;SDS011;41718;51.980;5.734;2022-08-03T10:25:53;9.50;;;3.00;;
48789;SDS011;41718;51.980;5.734;2022-08-03T10:31:02;7.82;;;2.30;;
48789;SDS011;41718;51.980;5.734;2022-08-03T10:36:11;5.57;;;2.55;;
48789;SDS011;41718;51.980;5.734;2022-08-03T10:41:15;10.02;;;2.65;;
48789;SDS011;41718;51.980;5.734;2022-08-03T10:46:20;10.25;;;2.80;;
48789;SDS011;41718;51.980;5.734;2022-08-03T10:51:21;7.55;;;2.75;;
48789;SDS011;41718;51.980;5.734;2022-08-03T11:01:55;9.13;;;3.30;;
48789;SDS011;41718;51.980;5.734;2022-08-03T11:07:20;9.30;;;2.20;;
48789;SDS011;41718;51.980;5.734;2022-08-03T11:12:26;5.85;;;2.75;;
48789;SDS011;41718;51.980;5.734;2022-08-03T11:17:32;10.45;;;2.33;;
48789;SDS011;41718;51.980;5.734;2022-08-03T11:22:57;7.05;;;2.22;;
48789;SDS011;41718;51.980;5.734;2022-08-03T11:33:31;6.28;;;1.75;;
48789;SDS011;41718;51.980;5.734;2022-08-03T11:38:32;4.90;;;2.30;;
48789;SDS011;41718;51.980;5.734;2022-08-03T11:48:41;8.00;;;2.38;;
48789;SDS011;41718;51.980;5.734;2022-08-03T11:53:45;9.10;;;2.38;;
48789;SDS011;41718;51.980;5.734;2022-08-03T11:58:50;10.73;;;2.80;;
48789;SDS011;41718;51.980;5.734;2022-08-03T12:04:14;7.95;;;2.50;;
48789;SDS011;41718;51.980;5.734;2022-08-03T12:09:18;7.90;;;2.22;;
48789;SDS011;41718;51.980;5.734;2022-08-03T12:14:21;7.18;;;2.03;;
48789;SDS011;41718;51.980;5.734;2022-08-03T12:19:45;9.65;;;2.63;;
48789;SDS011;41718;51.980;5.734;2022-08-03T12:24:46;8.93;;;2.53;;
48789;SDS011;41718;51.980;5.734;2022-08-03T12:29:49;6.07;;;2.10;;
48789;SDS011;41718;51.980;5.734;2022-08-03T12:34:59;9.35;;;2.28;;
48789;SDS011;41718;51.980;5.734;2022-08-03T12:40:02;5.93;;;2.30;;
48789;SDS011;41718;51.980;5.734;2022-08-03T12:55:27;6.20;;;2.10;;
48789;SDS011;41718;51.980;5.734;2022-08-03T13:00:54;5.82;;;1.95;;
48789;SDS011;41718;51.980;5.734;2022-08-03T13:05:57;5.95;;;2.08;;
48789;SDS011;41718;51.980;5.734;2022-08-03T13:10:59;7.35;;;1.92;;
48789;SDS011;41718;51.980;5.734;2022-08-03T13:16:21;4.47;;;1.70;;
48789;SDS011;41718;51.980;5.734;2022-08-03T13:21:23;4.00;;;1.40;;
48789;SDS011;41718;51.980;5.734;2022-08-03T13:26:25;1.90;;;1.15;;
48789;SDS011;41718;51.980;5.734;2022-08-03T13:31:27;2.50;;;1.10;;
48789;SDS011;41718;51.980;5.734;2022-08-03T13:36:28;3.35;;;1.50;;
48789;SDS011;41718;51.980;5.734;2022-08-03T13:41:42;1.23;;;0.90;;
48789;SDS011;41718;51.980;5.734;2022-08-03T13:46:45;6.15;;;1.45;;
48789;SDS011;41718;51.980;5.734;2022-08-03T13:51:46;2.10;;;1.00;;
48789;SDS011;41718;51.980;5.734;2022-08-03T13:56:48;6.13;;;2.25;;
48789;SDS011;41718;51.980;5.734;2022-08-03T14:01:53;4.35;;;1.73;;
48789;SDS011;41718;51.980;5.734;2022-08-03T14:06:56;4.00;;;1.35;;
48789;SDS011;41718;51.980;5.734;2022-08-03T14:11:58;5.43;;;2.03;;
48789;SDS011;41718;51.980;5.734;2022-08-03T14:17:08;5.80;;;2.15;;
48789;SDS011;41718;51.980;5.734;2022-08-03T14:22:16;4.38;;;1.55;;
48789;SDS011;41718;51.980;5.734;2022-08-03T14:27:18;3.65;;;1.13;;
48789;SDS011;41718;51.980;5.734;2022-08-03T14:32:22;4.85;;;1.30;;
48789;SDS011;41718;51.980;5.734;2022-08-03T14:37:24;2.35;;;1.00;;
48789;SDS011;41718;51.980;5.734;2022-08-03T14:42:26;3.30;;;0.80;;
48789;SDS011;41718;51.980;5.734;2022-08-03T14:47:27;1.88;;;1.08;;
48789;SDS011;41718;51.980;5.734;2022-08-03T14:52:29;4.30;;;1.20;;
48789;SDS011;41718;51.980;5.734;2022-08-03T14:57:31;4.97;;;1.63;;
48789;SDS011;41718;51.980;5.734;2022-08-03T15:02:33;6.03;;;0.98;;
48789;SDS011;41718;51.980;5.734;2022-08-03T15:07:34;3.85;;;1.20;;
48789;SDS011;41718;51.980;5.734;2022-08-03T15:12:36;5.45;;;2.30;;
48789;SDS011;41718;51.980;5.734;2022-08-03T15:17:37;3.53;;;1.25;;
48789;SDS011;41718;51.980;5.734;2022-08-03T15:22:43;2.13;;;0.95;;
48789;SDS011;41718;51.980;5.734;2022-08-03T15:27:44;2.92;;;1.15;;
48789;SDS011;41718;51.980;5.734;2022-08-03T15:33:04;4.15;;;0.90;;
48789;SDS011;41718;51.980;5.734;2022-08-03T15:38:06;2.17;;;1.30;;
48789;SDS011;41718;51.980;5.734;2022-08-03T15:43:10;3.45;;;1.75;;
48789;SDS011;41718;51.980;5.734;2022-08-03T15:48:12;4.25;;;1.55;;
48789;SDS011;41718;51.980;5.734;2022-08-03T15:53:13;2.45;;;1.60;;
48789;SDS011;41718;51.980;5.734;2022-08-03T15:58:15;2.15;;;1.10;;
48789;SDS011;41718;51.980;5.734;2022-08-03T16:03:37;2.50;;;1.33;;
48789;SDS011;41718;51.980;5.734;2022-08-03T16:08:39;3.35;;;1.60;;
48789;SDS011;41718;51.980;5.734;2022-08-03T16:13:40;3.13;;;1.38;;
48789;SDS011;41718;51.980;5.734;2022-08-03T16:19:02;2.15;;;1.42;;
48789;SDS011;41718;51.980;5.734;2022-08-03T16:24:05;3.90;;;1.50;;
48789;SDS011;41718;51.980;5.734;2022-08-03T16:29:15;3.00;;;1.67;;
48789;SDS011;41718;51.980;5.734;2022-08-03T16:34:24;3.10;;;1.65;;
48789;SDS011;41718;51.980;5.734;2022-08-03T16:39:25;4.40;;;1.52;;
48789;SDS011;41718;51.980;5.734;2022-08-03T16:44:28;5.30;;;1.70;;
48789;SDS011;41718;51.980;5.734;2022-08-03T16:49:31;3.33;;;1.23;;
48789;SDS011;41718;51.980;5.734;2022-08-03T16:54:52;2.55;;;1.42;;
48789;SDS011;41718;51.980;5.734;2022-08-03T16:59:55;3.37;;;1.40;;
48789;SDS011;41718;51.980;5.734;2022-08-03T17:04:59;6.53;;;1.70;;
48789;SDS011;41718;51.980;5.734;2022-08-03T17:10:01;4.10;;;2.10;;
48789;SDS011;41718;51.980;5.734;2022-08-03T17:15:07;3.85;;;1.42;;
48789;SDS011;41718;51.980;5.734;2022-08-03T17:20:12;4.50;;;1.50;;
48789;SDS011;41718;51.980;5.734;2022-08-03T17:25:18;3.78;;;1.40;;
48789;SDS011;41718;51.980;5.734;2022-08-03T17:30:41;6.25;;;1.42;;
48789;SDS011;41718;51.980;5.734;2022-08-03T17:36:03;7.23;;;2.23;;
48789;SDS011;41718;51.980;5.734;2022-08-03T17:41:06;5.22;;;1.40;;
48789;SDS011;41718;51.980;5.734;2022-08-03T17:46:11;4.95;;;1.63;;
48789;SDS011;41718;51.980;5.734;2022-08-03T17:51:14;3.08;;;1.30;;
48789;SDS011;41718;51.980;5.734;2022-08-03T18:07:33;3.25;;;1.38;;
48789;SDS011;41718;51.980;5.734;2022-08-03T18:12:47;2.83;;;1.30;;
48789;SDS011;41718;51.980;5.734;2022-08-03T18:17:53;5.28;;;2.47;;
48789;SDS011;41718;51.980;5.734;2022-08-03T18:23:02;3.85;;;1.52;;
48789;SDS011;41718;51.980;5.734;2022-08-03T18:28:05;3.40;;;1.90;;
48789;SDS011;41718;51.980;5.734;2022-08-03T18:33:12;3.92;;;1.02;;
48789;SDS011;41718;51.980;5.734;2022-08-03T18:43:42;2.63;;;1.33;;
48789;SDS011;41718;51.980;5.734;2022-08-03T18:48:48;4.47;;;1.88;;
48789;SDS011;41718;51.980;5.734;2022-08-03T18:54:17;4.30;;;2.33;;
48789;SDS011;41718;51.980;5.734;2022-08-03T19:05:10;3.35;;;1.40;;
48789;SDS011;41718;51.980;5.734;2022-08-03T19:10:12;3.22;;;1.50;;
48789;SDS011;41718;51.980;5.734;2022-08-03T19:15:19;3.80;;;1.38;;
48789;SDS011;41718;51.980;5.734;2022-08-03T19:20:41;4.65;;;1.45;;
48789;SDS011;41718;51.980;5.734;2022-08-03T19:25:47;3.33;;;1.70;;
48789;SDS011;41718;51.980;5.734;2022-08-03T19:30:48;4.40;;;3.10;;
48789;SDS011;41718;51.980;5.734;2022-08-03T19:35:54;4.97;;;1.50;;
48789;SDS011;41718;51.980;5.734;2022-08-03T19:40:58;5.20;;;1.77;;
48789;SDS011;41718;51.980;5.734;2022-08-03T19:46:06;3.80;;;1.45;;
48789;SDS011;41718;51.980;5.734;2022-08-03T19:51:14;3.03;;;2.08;;
48789;SDS011;41718;51.980;5.734;2022-08-03T19:56:17;2.50;;;1.60;;
48789;SDS011;41718;51.980;5.734;2022-08-03T20:01:24;4.35;;;1.80;;
48789;SDS011;41718;51.980;5.734;2022-08-03T20:06:28;2.60;;;2.00;;
48789;SDS011;41718;51.980;5.734;2022-08-03T20:11:31;6.72;;;2.17;;
48789;SDS011;41718;51.980;5.734;2022-08-03T20:16:45;8.80;;;2.53;;
48789;SDS011;41718;51.980;5.734;2022-08-03T20:21:47;3.70;;;2.15;;
48789;SDS011;41718;51.980;5.734;2022-08-03T20:26:51;6.78;;;2.10;;
48789;SDS011;41718;51.980;5.734;2022-08-03T20:31:56;2.70;;;1.77;;
48789;SDS011;41718;51.980;5.734;2022-08-03T20:36:59;5.35;;;2.08;;
48789;SDS011;41718;51.980;5.734;2022-08-03T20:42:01;3.67;;;2.13;;
48789;SDS011;41718;51.980;5.734;2022-08-03T20:47:05;8.00;;;2.30;;
48789;SDS011;41718;51.980;5.734;2022-08-03T20:52:23;3.75;;;1.92;;
48789;SDS011;41718;51.980;5.734;2022-08-03T20:57:26;4.32;;;2.03;;
48789;SDS011;41718;51.980;5.734;2022-08-03T21:02:33;5.03;;;1.77;;
48789;SDS011;41718;51.980;5.734;2022-08-03T21:07:39;2.65;;;1.80;;
48789;SDS011;41718;51.980;5.734;2022-08-03T21:13:05;3.55;;;1.88;;
48789;SDS011;41718;51.980;5.734;2022-08-03T21:18:19;3.60;;;2.00;;
48789;SDS011;41718;51.980;5.734;2022-08-03T21:23:23;3.83;;;2.33;;
48789;SDS011;41718;51.980;5.734;2022-08-03T21:28:47;4.00;;;1.90;;
48789;SDS011;41718;51.980;5.734;2022-08-03T21:33:50;4.80;;;2.58;;
48789;SDS011;41718;51.980;5.734;2022-08-03T21:39:05;6.47;;;3.20;;
48789;SDS011;41718;51.980;5.734;2022-08-03T21:44:09;4.28;;;2.17;;
48789;SDS011;41718;51.980;5.734;2022-08-03T21:49:12;4.97;;;2.28;;
48789;SDS011;41718;51.980;5.734;2022-08-03T21:54:34;4.45;;;2.28;;
48789;SDS011;41718;51.980;5.734;2022-08-03T21:59:38;3.53;;;2.40;;
48789;SDS011;41718;51.980;5.734;2022-08-03T22:04:45;6.75;;;2.70;;
48789;SDS011;41718;51.980;5.734;2022-08-03T22:09:56;6.95;;;2.10;;
48789;SDS011;41718;51.980;5.734;2022-08-03T22:20:05;5.55;;;2.10;;
48789;SDS011;41718;51.980;5.734;2022-08-03T22:25:16;3.45;;;2.17;;
48789;SDS011;41718;51.980;5.734;2022-08-03T22:30:18;6.10;;;2.70;;
48789;SDS011;41718;51.980;5.734;2022-08-03T22:35:20;10.07;;;2.95;;
48789;SDS011;41718;51.980;5.734;2022-08-03T22:45:27;6.68;;;2.35;;
48789;SDS011;41718;51.980;5.734;2022-08-03T22:50:49;4.88;;;2.45;;
48789;SDS011;41718;51.980;5.734;2022-08-03T22:55:51;9.95;;;3.03;;
48789;SDS011;41718;51.980;5.734;2022-08-03T23:01:10;5.25;;;3.03;;
48789;SDS011;41718;51.980;5.734;2022-08-03T23:06:15;12.32;;;2.90;;
48789;SDS011;41718;51.980;5.734;2022-08-03T23:11:19;6.23;;;2.67;;
48789;SDS011;41718;51.980;5.734;2022-08-03T23:16:23;3.22;;;2.10;;
48789;SDS011;41718;51.980;5.734;2022-08-03T23:21:29;5.18;;;2.25;;
48789;SDS011;41718;51.980;5.734;2022-08-03T23:26:51;3.47;;;2.08;;
48789;SDS011;41718;51.980;5.734;2022-08-03T23:31:54;6.35;;;2.70;;
48789;SDS011;41718;51.980;5.734;2022-08-03T23:36:56;5.15;;;2.55;;
48789;SDS011;41718;51.980;5.734;2022-08-03T23:42:00;3.83;;;2.60;;
48789;SDS011;41718;51.980;5.734;2022-08-03T23:47:03;5.25;;;2.53;;
